Time;durP1;ratioP1;P1;durP2;ratioP2;P2;SDS_P1;SDS_P2;PMS_P1;PMS_P2;Temp;Humidity;BMP_temperature;BMP_pressure;BME280_temperature;BME280_humidity;BME280_pressure;Samples;Min_cycle;Max_cycle;Signal;HPM_P1;HPM_P2
2022/09/08 00:01:28;;;;;;;2.47;1.48;;;19.80;99.90;;;;;;5010484;28;20030;-76
2022/09/08 00:03:54;;;;;;;3.47;1.02;;;19.80;99.90;;;;;;5000888;28;20188;-78
2022/09/08 00:06:19;;;;;;;2.05;0.82;;;19.90;99.90;;;;;;5003803;28;20033;-77
2022/09/08 00:08:47;;;;;;;1.65;1.20;;;19.90;99.90;;;;;;5012537;28;20120;-79
2022/09/08 00:11:18;;;;;;;3.92;1.45;;;20.00;99.90;;;;;;5014963;28;20022;-77
2022/09/08 00:13:44;;;;;;;;;;;20.00;99.90;;;;;;4999194;28;20087;-77
2022/09/08 00:16:10;;;;;;;4.22;1.30;;;20.00;99.90;;;;;;5003045;28;19918;-77
2022/09/08 00:18:39;;;;;;;1.40;1.25;;;20.00;99.90;;;;;;5006055;28;20033;-78
2022/09/08 00:21:05;;;;;;;2.90;1.30;;;20.00;99.90;;;;;;4995975;28;20459;-82
2022/09/08 00:23:31;;;;;;;3.63;1.40;;;19.90;99.90;;;;;;4997715;28;20022;-77
2022/09/08 00:25:56;;;;;;;4.53;1.55;;;19.90;99.90;;;;;;5004371;28;20537;-77
2022/09/08 00:28:22;;;;;;;2.55;1.20;;;19.90;99.90;;;;;;5004177;28;20545;-78
2022/09/08 00:30:48;;;;;;;2.88;1.23;;;19.90;99.90;;;;;;4998056;28;20077;-74
2022/09/08 00:33:13;;;;;;;1.70;1.30;;;19.90;99.90;;;;;;5007898;28;20030;-72
2022/09/08 00:35:43;;;;;;;3.85;1.40;;;19.90;99.90;;;;;;4996943;28;20030;-75
2022/09/08 00:38:10;;;;;;;1.67;0.90;;;19.80;99.90;;;;;;5012803;28;20026;-73
2022/09/08 00:40:45;;;;;;;3.80;1.30;;;19.80;99.90;;;;;;5012399;28;20033;-73
2022/09/08 00:43:27;;;;;;;4.28;1.17;;;19.80;99.90;;;;;;5012202;28;20029;-74
2022/09/08 00:45:53;;;;;;;4.60;1.48;;;19.70;99.90;;;;;;5013130;28;20038;-74
2022/09/08 00:48:21;;;;;;;4.50;1.90;;;19.70;99.90;;;;;;5013316;28;20041;-73
2022/09/08 00:50:47;;;;;;;6.07;1.60;;;19.70;99.90;;;;;;5011562;28;20061;-73
2022/09/08 00:53:16;;;;;;;3.47;1.52;;;19.60;99.90;;;;;;5013167;28;20414;-73
2022/09/08 00:55:43;;;;;;;3.75;1.63;;;19.70;99.90;;;;;;5012717;28;20022;-73
2022/09/08 00:58:09;;;;;;;2.28;1.52;;;19.60;99.90;;;;;;5012965;28;20476;-73
2022/09/08 01:00:36;;;;;;;1.33;1.15;;;19.60;99.90;;;;;;5013255;28;20030;-72
2022/09/08 01:03:05;;;;;;;5.38;1.60;;;19.70;99.90;;;;;;5012564;28;20036;-73
2022/09/08 01:05:55;;;;;;;3.17;1.58;;;19.70;99.90;;;;;;5012009;28;20026;-73
2022/09/08 01:14:15;;;;;;;1.98;1.40;;;19.70;99.90;;;;;;5012847;28;20180;-75
2022/09/08 01:16:48;;;;;;;4.38;1.40;;;19.70;99.90;;;;;;5013123;28;20502;-74
2022/09/08 01:19:19;;;;;;;3.35;1.60;;;19.60;99.90;;;;;;5012987;28;20036;-72
2022/09/08 01:22:01;;;;;;;2.20;1.25;;;19.50;99.90;;;;;;5012140;28;20029;-72
2022/09/08 01:24:42;;;;;;;2.67;1.35;;;19.50;99.90;;;;;;5011883;28;20379;-72
2022/09/08 01:27:22;;;;;;;3.10;1.60;;;19.50;99.90;;;;;;5011492;28;20033;-72
2022/09/08 01:29:52;;;;;;;3.72;1.40;;;19.50;99.90;;;;;;5011202;28;20028;-73
2022/09/08 01:32:19;;;;;;;4.95;1.25;;;19.50;99.90;;;;;;5011515;28;20026;-73
2022/09/08 01:34:45;;;;;;;3.08;1.70;;;19.50;99.90;;;;;;5010964;28;20034;-73
2022/09/08 01:37:13;;;;;;;4.00;1.30;;;19.60;99.90;;;;;;5011521;28;20471;-72
2022/09/08 01:39:38;;;;;;;3.35;1.50;;;19.60;99.90;;;;;;5014754;28;20030;-72
2022/09/08 01:42:05;;;;;;;3.35;1.45;;;19.70;99.90;;;;;;5014910;28;20084;-72
2022/09/08 01:44:32;;;;;;;2.33;1.35;;;19.70;99.90;;;;;;5015484;28;20030;-72
2022/09/08 01:46:58;;;;;;;2.92;1.17;;;19.70;99.90;;;;;;5014805;28;20045;-72
2022/09/08 01:49:24;;;;;;;2.90;1.27;;;19.70;99.90;;;;;;5015548;28;20037;-72
2022/09/08 01:51:50;;;;;;;5.75;1.40;;;19.70;99.90;;;;;;5015827;28;20033;-73
2022/09/08 01:54:15;;;;;;;4.57;1.50;;;19.80;99.90;;;;;;5015303;28;20022;-72
2022/09/08 01:56:41;;;;;;;2.88;1.60;;;19.80;99.90;;;;;;5016533;28;20069;-72
2022/09/08 01:59:07;;;;;;;3.05;1.42;;;19.80;99.90;;;;;;5014709;28;20459;-72
2022/09/08 02:01:32;;;;;;;4.45;1.40;;;19.80;99.90;;;;;;5015344;28;20029;-72
2022/09/08 02:03:58;;;;;;;3.33;1.30;;;19.80;99.90;;;;;;5014654;28;20077;-73
2022/09/08 02:06:23;;;;;;;1.60;1.13;;;19.70;99.90;;;;;;5015305;28;20128;-73
2022/09/08 02:08:50;;;;;;;2.92;1.30;;;19.60;99.90;;;;;;5015779;28;20022;-73
2022/09/08 02:11:16;;;;;;;2.85;1.50;;;19.70;99.90;;;;;;5015246;28;20072;-72
2022/09/08 02:13:42;;;;;;;3.80;1.13;;;19.70;99.90;;;;;;5016312;28;20506;-72
2022/09/08 02:16:11;;;;;;;3.45;1.30;;;19.70;99.90;;;;;;5015758;28;20129;-72
2022/09/08 02:18:37;;;;;;;3.67;2.20;;;19.70;99.90;;;;;;5014979;28;20042;-73
2022/09/08 02:21:17;;;;;;;2.92;1.50;;;19.60;99.90;;;;;;5014371;28;20026;-73
2022/09/08 02:23:47;;;;;;;3.97;1.48;;;19.60;99.90;;;;;;5016448;28;20103;-72
2022/09/08 02:26:18;;;;;;;2.88;1.35;;;19.60;99.90;;;;;;5016006;28;20381;-71
2022/09/08 02:28:45;;;;;;;3.75;1.58;;;19.60;99.90;;;;;;5014821;28;20041;-72
2022/09/08 02:31:11;;;;;;;2.35;1.20;;;19.60;99.90;;;;;;5015648;28;20037;-72
2022/09/08 02:33:36;;;;;;;2.10;1.40;;;19.60;99.90;;;;;;5015906;28;20030;-72
2022/09/08 02:36:03;;;;;;;4.10;1.45;;;19.60;99.90;;;;;;5015288;28;20541;-72
2022/09/08 02:38:29;;;;;;;2.63;1.50;;;19.60;99.90;;;;;;5015775;28;20109;-72
2022/09/08 02:40:55;;;;;;;2.40;1.20;;;19.70;99.90;;;;;;5013947;28;20457;-72
2022/09/08 02:43:24;;;;;;;3.67;1.45;;;19.70;99.90;;;;;;5015629;28;20537;-71
2022/09/08 02:45:50;;;;;;;2.80;1.75;;;19.70;99.90;;;;;;5013498;28;20033;-73
2022/09/08 02:48:15;;;;;;;2.67;1.35;;;19.70;99.90;;;;;;5014391;28;20128;-71
2022/09/08 02:50:41;;;;;;;2.47;1.45;;;19.70;99.90;;;;;;5014185;28;20030;-72
2022/09/08 02:53:08;;;;;;;3.65;1.33;;;19.70;99.90;;;;;;5014950;28;20608;-72
2022/09/08 02:55:39;;;;;;;2.92;1.40;;;19.60;99.90;;;;;;5015153;28;20471;-71
2022/09/08 02:58:05;;;;;;;3.35;1.38;;;19.70;99.90;;;;;;5013727;28;20029;-71
2022/09/08 03:00:32;;;;;;;5.95;1.92;;;19.70;99.90;;;;;;5014101;28;20487;-71
2022/09/08 03:02:58;;;;;;;2.78;1.60;;;19.60;99.90;;;;;;5013508;28;20072;-74
2022/09/08 03:05:24;;;;;;;3.22;1.55;;;19.60;99.90;;;;;;5013982;28;20120;-74
2022/09/08 03:07:51;;;;;;;3.90;1.30;;;19.60;99.90;;;;;;5013322;28;20045;-74
2022/09/08 03:10:18;;;;;;;2.80;1.60;;;19.60;99.90;;;;;;5015157;28;20489;-74
2022/09/08 03:12:44;;;;;;;3.88;1.70;;;19.60;99.90;;;;;;5015386;28;20037;-74
2022/09/08 03:15:10;;;;;;;3.05;1.70;;;19.60;99.90;;;;;;5014054;28;20030;-74
2022/09/08 03:17:35;;;;;;;3.25;1.85;;;19.50;99.90;;;;;;5015141;28;20112;-74
2022/09/08 03:20:01;;;;;;;5.85;1.80;;;19.60;99.90;;;;;;5013149;28;20161;-74
2022/09/08 03:22:27;;;;;;;1.80;1.33;;;19.50;99.90;;;;;;5013709;28;20030;-74
2022/09/08 03:24:52;;;;;;;3.35;1.35;;;19.60;99.90;;;;;;5014664;28;20025;-74
2022/09/08 03:27:18;;;;;;;2.47;1.70;;;19.50;99.90;;;;;;5013186;28;20507;-74
2022/09/08 03:29:44;;;;;;;3.40;2.00;;;19.50;99.90;;;;;;5014524;28;20030;-74
2022/09/08 03:32:09;;;;;;;4.40;2.10;;;19.50;99.90;;;;;;5014166;28;20644;-75
2022/09/08 03:34:37;;;;;;;3.08;1.80;;;19.40;99.90;;;;;;5014855;28;20033;-74
2022/09/08 03:37:02;;;;;;;3.00;1.73;;;19.30;99.90;;;;;;5014158;28;20029;-75
2022/09/08 03:39:28;;;;;;;6.60;2.03;;;19.30;99.90;;;;;;5013252;28;20029;-74
2022/09/08 03:41:54;;;;;;;4.22;2.33;;;19.30;99.90;;;;;;5014050;28;20032;-73
2022/09/08 03:44:19;;;;;;;4.47;1.70;;;19.30;99.90;;;;;;5013142;28;20065;-74
2022/09/08 03:46:45;;;;;;;2.80;1.90;;;19.20;99.90;;;;;;5013167;28;20038;-74
2022/09/08 03:49:11;;;;;;;4.82;1.80;;;19.10;99.90;;;;;;5012720;28;20038;-75
2022/09/08 03:51:37;;;;;;;3.50;1.80;;;19.10;99.90;;;;;;5013262;28;20022;-74
2022/09/08 03:56:49;;;;;;;4.18;1.60;;;19.00;99.90;;;;;;5014087;28;20137;-74
2022/09/08 03:59:15;;;;;;;2.70;1.77;;;19.10;99.90;;;;;;5013641;28;20453;-74
2022/09/08 04:01:41;;;;;;;2.78;1.70;;;19.00;99.90;;;;;;5012108;28;20033;-74
2022/09/08 04:04:06;;;;;;;3.67;1.40;;;19.10;99.90;;;;;;5013611;28;20026;-74
2022/09/08 04:06:32;;;;;;;2.97;1.20;;;19.00;99.90;;;;;;5014330;28;20475;-72
2022/09/08 04:08:58;;;;;;;1.25;1.00;;;18.90;99.90;;;;;;5012384;28;20463;-75
2022/09/08 04:11:24;;;;;;;2.35;1.15;;;18.80;99.90;;;;;;5012836;28;20475;-74
2022/09/08 04:13:50;;;;;;;2.10;1.40;;;18.80;99.90;;;;;;5013886;28;20034;-72
2022/09/08 04:16:17;;;;;;;2.92;1.30;;;18.80;99.90;;;;;;5011899;28;20091;-74
2022/09/08 04:18:43;;;;;;;2.00;1.35;;;18.70;99.90;;;;;;5012592;28;20478;-75
2022/09/08 04:21:09;;;;;;;4.22;1.35;;;18.70;99.90;;;;;;5013405;28;20026;-75
2022/09/08 04:23:34;;;;;;;2.20;1.00;;;18.60;99.90;;;;;;5012712;28;20040;-74
2022/09/08 04:26:06;;;;;;;2.33;1.20;;;18.60;99.90;;;;;;5013201;28;20040;-74
2022/09/08 04:28:33;;;;;;;1.52;0.68;;;18.50;99.90;;;;;;5013791;28;20447;-74
2022/09/08 04:30:58;;;;;;;1.65;0.70;;;18.60;99.90;;;;;;5011923;28;20113;-75
2022/09/08 04:33:24;;;;;;;1.92;0.70;;;18.50;99.90;;;;;;5012478;28;20120;-75
2022/09/08 04:35:50;;;;;;;2.22;0.80;;;18.40;99.90;;;;;;5013411;28;20469;-72
2022/09/08 04:38:15;;;;;;;1.92;0.57;;;18.30;99.90;;;;;;5011855;28;20030;-75
2022/09/08 04:40:42;;;;;;;1.35;0.65;;;18.30;99.90;;;;;;5013797;28;20076;-75
2022/09/08 04:43:07;;;;;;;2.40;0.95;;;18.20;99.90;;;;;;5011845;28;20387;-75
2022/09/08 04:45:33;;;;;;;2.67;0.90;;;18.20;99.90;;;;;;5013284;28;20029;-74
2022/09/08 04:47:59;;;;;;;1.75;0.70;;;18.10;99.90;;;;;;5011624;28;20136;-73
2022/09/08 04:50:25;;;;;;;2.47;0.80;;;18.10;99.90;;;;;;5012256;28;20454;-72
2022/09/08 04:52:50;;;;;;;2.45;0.98;;;18.00;99.90;;;;;;5013337;28;20030;-73
2022/09/08 04:55:16;;;;;;;2.17;0.60;;;18.00;99.90;;;;;;5012731;28;20383;-73
2022/09/08 04:57:41;;;;;;;1.83;0.60;;;17.90;99.90;;;;;;5012154;28;20150;-76
2022/09/08 05:00:08;;;;;;;1.90;0.70;;;17.90;99.90;;;;;;5011290;28;20486;-75
2022/09/08 05:02:33;;;;;;;0.85;0.65;;;17.80;99.90;;;;;;5011986;28;20033;-73
2022/09/08 05:04:59;;;;;;;1.50;0.65;;;17.80;99.90;;;;;;5011347;28;20022;-73
2022/09/08 05:07:24;;;;;;;2.78;0.60;;;17.80;99.90;;;;;;5011822;28;20062;-75
2022/09/08 05:09:50;;;;;;;1.08;0.40;;;17.70;99.90;;;;;;5013186;28;20056;-73
2022/09/08 05:12:15;;;;;;;1.67;0.43;;;17.60;99.90;;;;;;5011941;28;20026;-73
2022/09/08 05:14:41;;;;;;;2.42;0.65;;;17.60;99.90;;;;;;5011347;28;20125;-73
2022/09/08 05:17:07;;;;;;;4.03;0.63;;;17.60;99.90;;;;;;5012633;28;20084;-74
2022/09/08 05:19:32;;;;;;;0.50;0.50;;;17.60;99.90;;;;;;5013272;28;20026;-74
2022/09/08 05:21:58;;;;;;;4.78;0.50;;;17.50;99.90;;;;;;5011335;28;20026;-75
2022/09/08 05:24:24;;;;;;;1.48;0.60;;;17.50;99.90;;;;;;5011939;28;20426;-73
2022/09/08 05:26:49;;;;;;;1.05;0.50;;;17.50;99.90;;;;;;5013122;28;20034;-74
2022/09/08 05:29:15;;;;;;;1.85;0.60;;;17.50;99.90;;;;;;5012171;28;20034;-74
2022/09/08 05:31:40;;;;;;;1.05;0.50;;;17.50;99.90;;;;;;5011652;28;20349;-74
2022/09/08 05:34:06;;;;;;;0.47;0.40;;;17.50;99.90;;;;;;5012623;28;20379;-74
2022/09/08 05:36:34;;;;;;;1.70;0.32;;;17.50;99.90;;;;;;5011742;28;20160;-74
2022/09/08 05:39:01;;;;;;;3.78;0.60;;;17.40;99.90;;;;;;5010833;28;20523;-74
2022/09/08 05:41:26;;;;;;;2.35;1.23;;;17.40;99.90;;;;;;5011533;28;20026;-73
2022/09/08 05:43:53;;;;;;;1.90;1.30;;;17.40;99.90;;;;;;5011535;28;20176;-74
2022/09/08 05:46:19;;;;;;;1.50;0.60;;;17.50;99.90;;;;;;5010857;28;20125;-73
2022/09/08 05:48:46;;;;;;;1.73;0.60;;;17.40;99.90;;;;;;5012964;28;20109;-73
2022/09/08 05:51:15;;;;;;;0.32;0.32;;;17.40;99.90;;;;;;5012083;28;20026;-73
2022/09/08 05:53:41;;;;;;;0.93;0.38;;;17.40;99.90;;;;;;5012681;28;20140;-72
2022/09/08 05:56:08;;;;;;;4.20;0.60;;;17.50;99.90;;;;;;5010867;28;20466;-73
2022/09/08 05:58:33;;;;;;;3.53;0.32;;;17.40;99.90;;;;;;5012642;28;20113;-73
2022/09/08 06:01:08;;;;;;;0.45;0.40;;;17.50;99.90;;;;;;5010947;28;20108;-73
2022/09/08 06:03:36;;;;;;;1.13;0.30;;;17.50;99.90;;;;;;5012623;28;20034;-73
2022/09/08 06:06:04;;;;;;;1.25;0.30;;;17.50;99.90;;;;;;5011955;28;20040;-73
2022/09/08 06:08:29;;;;;;;1.52;0.30;;;17.50;99.90;;;;;;5011521;28;20029;-73
2022/09/08 06:10:55;;;;;;;1.52;0.35;;;17.50;99.90;;;;;;5012535;28;20360;-72
2022/09/08 06:13:21;;;;;;;1.48;0.43;;;17.50;99.90;;;;;;5012063;28;20018;-72
2022/09/08 06:15:48;;;;;;;2.08;0.30;;;17.50;99.90;;;;;;5010887;28;20050;-73
2022/09/08 06:18:14;;;;;;;1.10;0.30;;;17.50;99.90;;;;;;5010651;28;20376;-72
2022/09/08 06:20:40;;;;;;;1.55;0.30;;;17.60;99.90;;;;;;5011973;28;20433;-72
2022/09/08 06:23:06;;;;;;;1.40;0.30;;;17.60;99.90;;;;;;5011952;28;20029;-74
2022/09/08 06:25:38;;;;;;;0.60;0.30;;;17.60;99.90;;;;;;5014041;28;20025;-73
2022/09/08 06:28:21;;;;;;;2.58;0.50;;;17.70;99.90;;;;;;5014372;28;20073;-73
2022/09/08 06:30:50;;;;;;;1.38;0.30;;;17.70;99.90;;;;;;5014882;28;20026;-74
2022/09/08 06:33:24;;;;;;;0.57;0.32;;;17.70;99.90;;;;;;5015512;28;20062;-74
2022/09/08 06:36:05;;;;;;;1.35;0.50;;;17.70;99.90;;;;;;5014837;28;20033;-73
2022/09/08 06:38:38;;;;;;;1.02;0.50;;;17.70;99.90;;;;;;5014981;28;20117;-74
2022/09/08 06:41:30;;;;;;;1.50;0.30;;;17.70;99.90;;;;;;5014137;28;20613;-74
2022/09/08 06:44:03;;;;;;;0.75;0.45;;;17.70;99.90;;;;;;5014146;28;20116;-73
2022/09/08 06:46:32;;;;;;;1.98;0.52;;;17.70;99.90;;;;;;5014490;28;20042;-73
2022/09/08 06:48:59;;;;;;;2.30;0.40;;;17.80;99.90;;;;;;5014455;28;20036;-73
2022/09/08 06:51:36;;;;;;;0.50;0.30;;;17.80;99.90;;;;;;5015135;28;20037;-73
2022/09/08 06:54:02;;;;;;;0.85;0.32;;;17.90;99.90;;;;;;5013784;28;20022;-75
2022/09/08 06:56:27;;;;;;;0.50;0.30;;;17.90;99.90;;;;;;5015412;28;20026;-73
2022/09/08 06:58:59;;;;;;;1.30;0.40;;;17.90;99.90;;;;;;5014318;28;20022;-73
2022/09/08 07:01:31;;;;;;;1.17;0.40;;;17.80;99.90;;;;;;5014942;28;20091;-73
2022/09/08 07:04:03;;;;;;;3.45;0.60;;;17.80;99.90;;;;;;5015408;28;20030;-73
2022/09/08 07:06:35;;;;;;;0.98;0.40;;;17.80;99.90;;;;;;5014968;28;20037;-73
2022/09/08 07:09:09;;;;;;;0.98;0.30;;;17.90;99.90;;;;;;5014074;28;20069;-73
2022/09/08 07:11:47;;;;;;;2.42;0.40;;;17.90;99.90;;;;;;5014140;28;20032;-73
2022/09/08 07:14:35;;;;;;;0.77;0.30;;;17.90;99.90;;;;;;5014521;28;20034;-73
2022/09/08 07:17:21;;;;;;;0.40;0.20;;;18.00;99.90;;;;;;5015237;28;20549;-73
2022/09/08 07:19:52;;;;;;;1.23;0.65;;;18.00;99.90;;;;;;5015402;28;20100;-74
2022/09/08 07:22:39;;;;;;;1.65;0.40;;;18.10;99.90;;;;;;5014556;28;20375;-73
2022/09/08 07:25:16;;;;;;;0.40;0.30;;;18.00;99.90;;;;;;5014646;28;20387;-74
2022/09/08 07:27:44;;;;;;;1.17;0.52;;;18.10;99.90;;;;;;5013765;28;20040;-73
2022/09/08 07:30:15;;;;;;;1.77;0.40;;;18.10;99.90;;;;;;5013145;28;20029;-73
2022/09/08 07:32:44;;;;;;;0.73;0.43;;;18.10;99.90;;;;;;5014815;28;20109;-73
2022/09/08 07:35:22;;;;;;;4.32;1.45;;;18.10;99.90;;;;;;5012765;28;20120;-73
2022/09/08 07:37:51;;;;;;;1.25;0.65;;;18.20;99.90;;;;;;5012729;28;20030;-73
2022/09/08 07:40:21;;;;;;;3.30;0.40;;;18.30;99.90;;;;;;5014171;28;20379;-74
2022/09/08 07:42:55;;;;;;;4.43;0.50;;;18.20;99.90;;;;;;5014942;28;20034;-74
2022/09/08 07:45:31;;;;;;;0.90;0.30;;;18.20;99.90;;;;;;5012754;28;20030;-74
2022/09/08 07:48:22;;;;;;;1.17;0.30;;;18.20;99.90;;;;;;5014255;28;20034;-75
2022/09/08 07:51:01;;;;;;;2.00;0.40;;;18.20;99.90;;;;;;5013088;28;20030;-74
2022/09/08 07:53:39;;;;;;;0.75;0.40;;;18.10;99.90;;;;;;5012349;28;20033;-72
2022/09/08 07:56:11;;;;;;;1.92;0.30;;;18.10;99.90;;;;;;5013135;28;20499;-73
2022/09/08 07:58:44;;;;;;;1.77;0.65;;;18.20;99.90;;;;;;5012652;28;20116;-73
2022/09/08 08:01:18;;;;;;;0.55;0.30;;;18.20;99.90;;;;;;5012504;28;20379;-76
2022/09/08 08:03:58;;;;;;;1.60;0.40;;;18.20;99.90;;;;;;5013165;28;20387;-74
2022/09/08 08:06:32;;;;;;;1.67;0.40;;;18.20;99.90;;;;;;5013444;28;20030;-73
2022/09/08 08:09:23;;;;;;;1.40;0.50;;;18.10;99.90;;;;;;5012930;28;20036;-73
2022/09/08 08:12:10;;;;;;;3.45;0.40;;;18.10;99.90;;;;;;5013926;28;20034;-73
2022/09/08 08:14:52;;;;;;;3.88;0.50;;;18.20;99.90;;;;;;5012315;28;20072;-72
2022/09/08 08:17:29;;;;;;;2.25;0.40;;;18.20;99.90;;;;;;5013134;28;20050;-73
2022/09/08 08:20:13;;;;;;;2.00;0.70;;;18.30;99.90;;;;;;5013955;28;20030;-73
2022/09/08 08:23:14;;;;;;;1.10;0.47;;;18.30;99.90;;;;;;5012479;28;20033;-73
2022/09/08 08:25:53;;;;;;;1.98;1.00;;;18.40;99.90;;;;;;5012556;28;20026;-74
2022/09/08 08:28:21;;;;;;;1.05;0.57;;;18.30;99.90;;;;;;5011903;28;20038;-73
2022/09/08 08:31:04;;;;;;;4.38;1.88;;;18.40;99.90;;;;;;5011728;28;20418;-72
2022/09/08 08:33:37;;;;;;;3.28;1.27;;;18.50;99.90;;;;;;5011571;28;20022;-73
2022/09/08 08:36:10;;;;;;;4.82;1.65;;;18.50;99.90;;;;;;5013468;28;20121;-73
2022/09/08 08:38:46;;;;;;;3.30;1.50;;;18.60;99.90;;;;;;5011856;28;20030;-73
2022/09/08 08:41:33;;;;;;;2.20;1.27;;;18.60;99.90;;;;;;5012753;28;20084;-74
2022/09/08 08:44:10;;;;;;;5.60;1.60;;;18.60;99.90;;;;;;5011909;28;20080;-72
2022/09/08 08:46:51;;;;;;;3.33;1.60;;;18.60;99.90;;;;;;5012752;28;20086;-73
2022/09/08 08:49:19;;;;;;;3.00;1.40;;;18.60;99.90;;;;;;5011151;28;20025;-73
2022/09/08 08:52:13;;;;;;;2.15;0.88;;;18.70;99.90;;;;;;5011576;28;20030;-73
2022/09/08 08:55:01;;;;;;;1.75;0.60;;;18.70;99.90;;;;;;5010958;28;20022;-73
2022/09/08 08:57:57;;;;;;;1.05;0.50;;;18.60;99.90;;;;;;5011089;28;20034;-73
2022/09/08 09:00:30;;;;;;;1.52;0.60;;;18.70;99.90;;;;;;5011748;28;20030;-73
2022/09/08 09:03:23;;;;;;;0.93;0.25;;;18.70;99.90;;;;;;5011817;28;20022;-73
2022/09/08 09:05:59;;;;;;;1.02;0.40;;;18.70;99.90;;;;;;5012775;28;20101;-73
2022/09/08 09:08:48;;;;;;;0.47;0.30;;;18.70;99.90;;;;;;5012172;28;20056;-73
2022/09/08 09:11:46;;;;;;;2.05;0.95;;;18.60;99.90;;;;;;5010996;28;20026;-76
2022/09/08 09:14:34;;;;;;;4.45;1.60;;;18.70;99.90;;;;;;4998475;28;20138;-74
2022/09/08 09:17:32;;;;;;;1.88;0.40;;;18.80;99.90;;;;;;5013547;28;20050;-73
2022/09/08 09:19:57;;;;;;;1.13;0.40;;;18.90;99.90;;;;;;5012935;28;20025;-73
2022/09/08 09:22:40;;;;;;;1.75;0.40;;;19.00;99.90;;;;;;5012622;28;20030;-72
2022/09/08 09:25:34;;;;;;;0.95;0.35;;;19.00;99.90;;;;;;5012883;28;20026;-73
2022/09/08 09:28:17;;;;;;;2.30;0.20;;;19.20;99.90;;;;;;5012265;28;20487;-73
2022/09/08 09:31:07;;;;;;;3.67;0.25;;;19.30;99.90;;;;;;5011194;28;20026;-73
2022/09/08 09:33:48;;;;;;;3.40;0.38;;;19.40;99.90;;;;;;5010456;28;20042;-73
2022/09/08 09:36:40;;;;;;;1.05;0.20;;;19.30;99.90;;;;;;5012111;28;20033;-73
2022/09/08 09:39:09;;;;;;;0.43;0.15;;;19.30;99.90;;;;;;5011503;28;20052;-72
2022/09/08 09:41:46;;;;;;;0.40;0.22;;;19.30;99.90;;;;;;5011644;28;20025;-73
2022/09/08 09:44:29;;;;;;;0.63;0.10;;;19.30;99.90;;;;;;5011309;28;20386;-73
2022/09/08 09:47:09;;;;;;;1.40;0.22;;;19.50;99.90;;;;;;5012718;28;20117;-72
2022/09/08 09:50:02;;;;;;;3.13;0.80;;;19.60;99.90;;;;;;5011687;28;20041;-73
2022/09/08 09:52:43;;;;;;;0.30;0.10;;;19.60;99.90;;;;;;5011272;28;20105;-73
2022/09/08 09:55:41;;;;;;;2.45;0.30;;;19.60;99.90;;;;;;5010928;28;20080;-72
2022/09/08 09:58:31;;;;;;;2.60;0.45;;;19.70;99.90;;;;;;5006581;28;20040;-72
2022/09/08 10:01:26;;;;;;;1.27;0.20;;;19.80;99.90;;;;;;5015822;28;20022;-74
2022/09/08 10:03:51;;;;;;;1.25;0.20;;;19.80;99.90;;;;;;5014021;28;20030;-73
2022/09/08 10:06:23;;;;;;;1.42;0.20;;;19.90;99.90;;;;;;5013551;28;20034;-74
2022/09/08 10:08:58;;;;;;;;;;;20.00;99.90;;;;;;5015714;28;20467;-72
2022/09/08 10:11:51;;;;;;;1.33;0.10;;;20.00;99.90;;;;;;5014086;28;20258;-73
2022/09/08 10:14:47;;;;;;;1.27;0.15;;;20.10;99.90;;;;;;5014139;28;20026;-76
2022/09/08 10:17:28;;;;;;;0.43;0.20;;;20.10;99.90;;;;;;5016000;28;20084;-72
2022/09/08 10:20:41;;;;;;;0.77;0.30;;;20.00;99.90;;;;;;5014252;28;20022;-73
2022/09/08 10:23:39;;;;;;;1.23;0.20;;;20.00;99.90;;;;;;5002409;28;20038;-73
2022/09/08 10:26:23;;;;;;;0.98;0.30;;;19.90;99.90;;;;;;5013531;28;20025;-72
2022/09/08 10:28:57;;;;;;;0.50;0.20;;;19.80;99.90;;;;;;5006470;28;20093;-76
2022/09/08 10:31:41;;;;;;;1.60;0.43;;;19.80;99.90;;;;;;5001756;28;20021;-76
2022/09/08 10:34:25;;;;;;;2.88;0.30;;;19.90;99.90;;;;;;5014688;28;20040;-75
2022/09/08 10:37:01;;;;;;;0.68;0.40;;;20.10;99.90;;;;;;5014642;28;20106;-75
2022/09/08 10:39:41;;;;;;;2.15;0.30;;;20.20;99.90;;;;;;5015338;28;20021;-77
2022/09/08 10:42:38;;;;;;;0.88;0.20;;;20.20;99.90;;;;;;5016333;28;20029;-76
2022/09/08 10:45:30;;;;;;;0.68;0.40;;;20.30;99.90;;;;;;5015685;28;20029;-75
2022/09/08 10:48:21;;;;;;;3.72;0.70;;;20.40;99.90;;;;;;5013716;28;20034;-75
2022/09/08 10:50:52;;;;;;;1.95;0.30;;;20.40;99.90;;;;;;5012847;28;20022;-74
2022/09/08 10:53:35;;;;;;;4.25;1.48;;;20.40;99.90;;;;;;4999387;28;20030;-77
2022/09/08 10:56:11;;;;;;;1.38;0.47;;;20.60;99.90;;;;;;5014160;28;20088;-75
2022/09/08 10:58:59;;;;;;;4.13;0.85;;;20.60;99.90;;;;;;5013313;28;20113;-74
2022/09/08 11:01:48;;;;;;;3.05;0.57;;;20.70;99.90;;;;;;5000865;28;20499;-75
2022/09/08 11:05:11;;;;;;;2.00;0.30;;;20.70;99.50;;;;;;5008819;28;20099;-74
2022/09/08 11:07:54;;;;;;;1.00;0.20;;;20.80;99.50;;;;;;4976049;28;20400;-74
2022/09/08 11:10:43;;;;;;;1.40;0.40;;;20.80;99.60;;;;;;4991769;28;20101;-75
2022/09/08 11:13:27;;;;;;;1.77;0.30;;;20.90;99.50;;;;;;4997327;28;20038;-75
2022/09/08 11:15:58;;;;;;;1.38;0.57;;;20.70;99.90;;;;;;5004505;28;20145;-80
2022/09/08 11:18:27;;;;;;;;;;;20.50;99.90;;;;;;5015194;28;20502;-79
2022/09/08 11:20:57;;;;;;;1.73;0.52;;;20.50;99.90;;;;;;5014831;28;19912;-79
2022/09/08 11:23:50;;;;;;;1.70;0.30;;;20.50;99.90;;;;;;5008511;28;20057;-78
2022/09/08 11:26:38;;;;;;;3.20;0.50;;;20.40;99.90;;;;;;4995288;28;20045;-78
2022/09/08 11:29:09;;;;;;;1.55;0.30;;;20.50;99.90;;;;;;5018814;28;20024;-79
2022/09/08 11:31:50;;;;;;;3.97;0.40;;;20.60;99.90;;;;;;5006419;28;20201;-76
2022/09/08 11:35:01;;;;;;;3.53;0.40;;;20.70;99.90;;;;;;4999568;28;20052;-75
2022/09/08 11:37:42;;;;;;;2.92;0.55;;;20.80;98.70;;;;;;4988386;28;20049;-77
2022/09/08 11:40:49;;;;;;;1.30;0.47;;;20.90;99.20;;;;;;5013319;28;20052;-78
2022/09/08 11:43:36;;;;;;;0.63;0.47;;;21.20;98.30;;;;;;5004247;28;20038;-77
2022/09/08 11:46:45;;;;;;;3.05;0.50;;;21.50;97.80;;;;;;5013907;28;20499;-76
2022/09/08 11:49:24;;;;;;;1.88;0.40;;;21.60;98.00;;;;;;5007925;28;20043;-77
2022/09/08 11:52:04;;;;;;;3.20;0.60;;;21.70;97.60;;;;;;5006787;28;20396;-75
2022/09/08 11:54:39;;;;;;;4.75;1.95;;;21.70;97.60;;;;;;5007827;28;20387;-73
2022/09/08 11:57:26;;;;;;;4.80;1.92;;;21.60;97.40;;;;;;5008350;28;20026;-78
2022/09/08 12:00:11;;;;;;;3.97;1.65;;;21.60;97.50;;;;;;5012064;28;20022;-78
2022/09/08 12:02:49;;;;;;;4.78;1.50;;;21.60;96.90;;;;;;5000816;28;20059;-78
2022/09/08 12:05:37;;;;;;;5.78;1.15;;;21.90;96.00;;;;;;5010370;28;20026;-76
2022/09/08 12:08:27;;;;;;;3.17;0.50;;;22.20;96.40;;;;;;5007096;28;20037;-75
2022/09/08 12:11:06;;;;;;;4.50;0.45;;;22.20;96.30;;;;;;5008918;28;20022;-77
2022/09/08 12:13:40;;;;;;;2.33;0.40;;;22.10;96.50;;;;;;5007805;28;20022;-77
2022/09/08 12:16:44;;;;;;;3.95;0.50;;;22.00;96.60;;;;;;5006512;28;20112;-75
2022/09/08 12:19:30;;;;;;;1.33;0.30;;;21.80;96.30;;;;;;5010285;28;20037;-75
2022/09/08 12:22:14;;;;;;;2.28;0.30;;;21.80;96.30;;;;;;5009375;28;20455;-75
2022/09/08 12:24:46;;;;;;;1.00;0.43;;;21.80;96.30;;;;;;5005579;28;20037;-75
2022/09/08 12:27:20;;;;;;;2.65;0.40;;;21.80;96.60;;;;;;5008808;28;20041;-75
2022/09/08 12:29:56;;;;;;;2.30;0.32;;;21.80;96.90;;;;;;5011681;28;20079;-75
2022/09/08 12:32:43;;;;;;;1.35;0.28;;;21.80;97.50;;;;;;5006909;28;20026;-75
2022/09/08 12:36:07;;;;;;;2.78;0.40;;;21.60;98.20;;;;;;5007049;28;20026;-74
2022/09/08 12:38:36;;;;;;;0.93;0.25;;;21.50;98.90;;;;;;4943436;29;20260;-76
2022/09/08 12:41:23;;;;;;;3.83;0.50;;;21.50;98.90;;;;;;5008969;28;20054;-75
2022/09/08 12:44:21;;;;;;;1.33;0.40;;;21.50;99.20;;;;;;5009287;28;20366;-75
2022/09/08 12:47:07;;;;;;;3.47;0.40;;;21.60;99.00;;;;;;5007878;28;20517;-74
2022/09/08 12:49:48;;;;;;;1.75;0.40;;;21.70;99.00;;;;;;5005625;28;20030;-75
2022/09/08 12:52:32;;;;;;;1.48;0.50;;;21.70;99.50;;;;;;5006077;28;20046;-75
2022/09/08 12:55:18;;;;;;;3.63;0.63;;;22.20;99.00;;;;;;5010131;28;20044;-77
2022/09/08 12:57:54;;;;;;;1.95;0.40;;;22.70;98.40;;;;;;5004985;28;20083;-75
2022/09/08 13:00:25;;;;;;;1.10;0.40;;;23.30;97.70;;;;;;5006582;28;20105;-76
2022/09/08 13:02:53;;;;;;;3.58;0.57;;;23.70;97.70;;;;;;5009373;28;20097;-76
2022/09/08 13:05:45;;;;;;;1.80;0.40;;;24.00;96.60;;;;;;5009136;28;20094;-75
2022/09/08 13:08:22;;;;;;;2.63;0.63;;;24.60;95.20;;;;;;5006024;28;20029;-74
2022/09/08 13:10:52;;;;;;;2.75;0.60;;;25.30;94.00;;;;;;5007923;28;20030;-74
2022/09/08 13:13:40;;;;;;;2.20;0.50;;;26.00;92.40;;;;;;4999247;28;20022;-79
2022/09/08 13:16:09;;;;;;;2.67;1.83;;;26.40;90.10;;;;;;5011168;28;20188;-75
2022/09/08 13:19:00;;;;;;;3.35;0.80;;;26.00;90.20;;;;;;5004777;28;20030;-76
2022/09/08 13:21:51;;;;;;;1.88;0.40;;;25.30;90.00;;;;;;5010832;28;20026;-76
2022/09/08 13:24:21;;;;;;;1.17;0.30;;;25.20;90.70;;;;;;5007228;28;20026;-76
2022/09/08 13:26:47;;;;;;;2.05;0.35;;;25.80;89.00;;;;;;5011022;28;20034;-75
2022/09/08 13:29:13;;;;;;;2.17;0.30;;;25.70;89.20;;;;;;5021559;28;20030;-77
2022/09/08 13:31:41;;;;;;;1.67;0.40;;;25.60;88.50;;;;;;5002865;28;20022;-76
2022/09/08 13:34:23;;;;;;;2.65;0.60;;;25.40;88.90;;;;;;4997438;28;20029;-75